Disclaimer

Please do not use the information listed here in-flight or in-navigation, as they are not provided to us by the airports but are provided by volunteers, so they might be outdated.

Search


Regions


Airport information page

Radio informations:
Automatic Terminal Information Service (ATIS) - 126.0 MHz
ULAANBAATAR APP - 120.0 MHz
ULAANBAATAR CON - 126.0 MHz

Airport informations:
Latitude: 47° 50' 35.00" N
Longitude: 106° 45' 59.90" E
Elevation: 4364 feet - 1330 meters
Operating hours: 24 hour operations
Operating agency: Civil government, landing fees and diplomatic clearance may be required
Timezone: UTC+8(+9DT)
Fuel: Jet A1+, Jet A1 with icing inhibitor.

Runway information:
14/32 - 10170 x 197 feet< - >3100 x 60 meters
15/33 - 6560 x 131 feet< - >1999 x 40 meters

Recent METARs:
ZMUB 190030Z VRB01MPS 6000NW NSC M26/M30 Q1015 NOSIG RMK QFE654.5 70 NW MO
ZMUB 190100Z VRB01MPS 6000NW NSC M24/M27 Q1016 NOSIG RMK QFE654.8 72 NW MO
ZMUB 190130Z 00000MPS 6000NW NSC M21/M25 Q1016 NOSIG RMK QFE655.0 69 NW MO

Airport on the map: